Time;durP1;ratioP1;P1;durP2;ratioP2;P2;SDS_P1;SDS_P2;PMS_P1;PMS_P2;Temp;Humidity;BMP_temperature;BMP_pressure;BME280_temperature;BME280_humidity;BME280_pressure;Samples;Min_cycle;Max_cycle;Signal;HPM_P1;HPM_P2
2021/10/03 00:00:48;;;;;;;1.63;1.10;;;17.10;99.90;;;;;;5035929;28;20237;-90
2021/10/03 00:03:22;;;;;;;1.00;0.90;;;17.10;99.90;;;;;;5035005;28;20206;-90
2021/10/03 00:05:52;;;;;;;1.10;0.93;;;17.10;99.90;;;;;;5036017;28;20198;-91
2021/10/03 00:08:20;;;;;;;1.42;1.00;;;17.10;99.90;;;;;;5032027;28;20615;-88
2021/10/03 00:10:49;;;;;;;1.73;0.95;;;17.10;99.90;;;;;;5032886;28;20217;-91
2021/10/03 00:13:16;;;;;;;2.92;1.13;;;17.10;99.90;;;;;;5035286;28;20207;-88
2021/10/03 00:15:43;;;;;;;1.20;1.10;;;17.10;99.90;;;;;;5035556;28;20229;-90
2021/10/03 00:18:11;;;;;;;0.80;0.80;;;17.10;99.90;;;;;;5035191;28;20936;-89
2021/10/03 00:20:40;;;;;;;2.20;0.93;;;17.10;99.90;;;;;;5034324;28;20199;-89
2021/10/03 00:23:07;;;;;;;7.05;1.73;;;17.10;99.90;;;;;;5035274;28;20199;-88
2021/10/03 00:25:35;;;;;;;2.85;1.50;;;17.10;99.90;;;;;;5035193;28;20202;-88
2021/10/03 00:28:03;;;;;;;5.65;1.58;;;17.10;99.90;;;;;;5034721;28;20536;-90
2021/10/03 00:30:30;;;;;;;7.40;1.83;;;17.10;99.90;;;;;;5034944;28;20202;-90
2021/10/03 00:32:57;;;;;;;6.95;1.88;;;17.10;99.90;;;;;;5034339;28;20202;-90
2021/10/03 00:35:24;;;;;;;5.50;1.75;;;17.00;99.90;;;;;;5032750;28;20221;-88
2021/10/03 00:37:52;;;;;;;7.82;1.88;;;17.00;99.90;;;;;;5032169;28;20211;-88
2021/10/03 00:40:20;;;;;;;5.97;2.72;;;17.00;99.90;;;;;;5033265;28;20607;-88
2021/10/03 00:42:47;;;;;;;6.38;2.28;;;16.90;99.90;;;;;;5034156;28;20603;-89
2021/10/03 00:45:17;;;;;;;7.85;2.28;;;16.90;99.90;;;;;;5035041;28;20232;-87
2021/10/03 00:47:44;;;;;;;7.65;2.03;;;16.90;99.90;;;;;;5034253;28;20241;-88
2021/10/03 00:50:14;;;;;;;5.15;2.08;;;16.90;99.90;;;;;;5034854;28;20223;-87
2021/10/03 00:52:42;;;;;;;4.95;1.70;;;16.90;99.90;;;;;;5016270;28;20290;-85
2021/10/03 00:55:14;;;;;;;8.07;1.83;;;16.80;99.90;;;;;;5036174;22;20238;-90
2021/10/03 00:57:42;;;;;;;8.13;1.95;;;16.80;99.90;;;;;;5054442;28;20233;-86
2021/10/03 01:00:12;;;;;;;15.52;2.90;;;16.70;99.90;;;;;;5054060;28;20205;-88
2021/10/03 01:02:40;;;;;;;19.42;3.53;;;16.80;99.90;;;;;;5054786;28;20208;-86
2021/10/03 01:05:08;;;;;;;14.35;3.60;;;16.70;99.90;;;;;;5053843;28;20205;-92
2021/10/03 01:07:35;;;;;;;18.23;3.22;;;16.70;99.90;;;;;;5054491;28;20237;-87
2021/10/03 01:10:03;;;;;;;20.63;5.13;;;16.70;99.90;;;;;;5054486;28;20210;-89
2021/10/03 01:12:33;;;;;;;25.23;4.00;;;16.60;99.90;;;;;;5054992;28;20209;-89
2021/10/03 01:15:00;;;;;;;26.90;4.00;;;16.60;99.90;;;;;;5054193;28;20202;-86
2021/10/03 01:17:27;;;;;;;21.83;4.13;;;16.60;99.90;;;;;;5049481;28;20206;-94
2021/10/03 01:19:55;;;;;;;25.77;4.47;;;16.60;99.90;;;;;;5035063;28;20217;-90
2021/10/03 01:22:24;;;;;;;25.80;4.07;;;16.50;99.90;;;;;;5033848;28;20587;-93
2021/10/03 01:24:52;;;;;;;21.52;3.75;;;16.50;99.90;;;;;;5034525;28;20203;-91
2021/10/03 01:27:22;;;;;;;16.55;3.83;;;16.50;99.90;;;;;;5034828;28;20653;-91
2021/10/03 01:29:50;;;;;;;16.65;5.20;;;16.50;99.90;;;;;;5034357;28;20294;-91
2021/10/03 01:32:18;;;;;;;19.27;3.92;;;16.40;99.90;;;;;;5055844;28;20218;-86
2021/10/03 01:34:48;;;;;;;15.15;3.10;;;16.40;99.90;;;;;;5053347;28;20201;-94
2021/10/03 01:37:16;;;;;;;28.88;4.18;;;16.40;99.90;;;;;;5053716;28;20205;-91
2021/10/03 01:39:44;;;;;;;23.90;4.18;;;16.40;99.90;;;;;;5054208;28;20224;-92
2021/10/03 01:42:11;;;;;;;23.25;4.45;;;16.30;99.90;;;;;;5034671;28;20203;-87
2021/10/03 01:44:38;;;;;;;19.02;4.15;;;16.40;99.90;;;;;;5033858;28;20207;-90
2021/10/03 01:47:05;;;;;;;20.58;3.58;;;16.30;99.90;;;;;;5033997;28;20223;-95
2021/10/03 01:49:32;;;;;;;15.63;3.60;;;16.30;99.90;;;;;;5033161;28;20210;-88
2021/10/03 01:51:59;;;;;;;21.67;4.43;;;16.30;99.90;;;;;;5033700;28;20203;-87
2021/10/03 01:54:26;;;;;;;24.10;4.90;;;16.30;99.90;;;;;;5033021;28;20860;-90
2021/10/03 01:56:55;;;;;;;27.27;4.05;;;16.20;99.90;;;;;;5033831;28;20206;-88
2021/10/03 01:59:22;;;;;;;20.15;4.05;;;16.20;99.90;;;;;;5032518;28;20202;-86
2021/10/03 02:01:48;;;;;;;27.20;4.82;;;16.20;99.90;;;;;;5032890;28;20230;-90
2021/10/03 02:04:16;;;;;;;26.13;4.15;;;16.20;99.90;;;;;;5032921;28;20634;-88
2021/10/03 02:06:45;;;;;;;23.00;3.83;;;16.20;99.90;;;;;;5052495;28;20312;-89
2021/10/03 02:09:12;;;;;;;21.27;3.83;;;16.10;99.90;;;;;;5053013;28;20214;-89
2021/10/03 02:11:42;;;;;;;21.67;3.73;;;16.00;99.90;;;;;;5052829;28;20834;-87
2021/10/03 02:14:11;;;;;;;22.15;3.67;;;16.00;99.90;;;;;;5053463;28;20229;-88
2021/10/03 02:16:38;;;;;;;22.45;3.85;;;15.90;99.90;;;;;;5030209;28;20206;-88
2021/10/03 02:19:05;;;;;;;16.52;3.58;;;15.90;99.90;;;;;;5031167;28;20587;-87
2021/10/03 02:21:33;;;;;;;26.30;3.77;;;15.80;99.90;;;;;;5033460;28;20225;-89
2021/10/03 02:24:00;;;;;;;14.60;2.93;;;15.80;99.90;;;;;;5041518;28;20199;-86
2021/10/03 02:26:26;;;;;;;15.43;2.90;;;15.70;99.90;;;;;;5036890;28;20195;-85
2021/10/03 02:28:53;;;;;;;18.87;3.73;;;15.70;99.90;;;;;;5036979;28;20217;-88
2021/10/03 02:31:22;;;;;;;21.53;3.87;;;15.70;99.90;;;;;;5029141;28;20218;-86
2021/10/03 02:33:51;;;;;;;21.33;4.13;;;15.70;99.90;;;;;;5032460;28;20198;-84
2021/10/03 02:36:20;;;;;;;20.63;4.47;;;15.70;99.90;;;;;;5032274;28;20253;-85
2021/10/03 02:38:48;;;;;;;25.80;4.17;;;15.70;99.90;;;;;;5050503;28;20198;-86
2021/10/03 02:41:15;;;;;;;22.35;4.40;;;15.70;99.90;;;;;;5044544;28;20202;-85
2021/10/03 02:43:45;;;;;;;19.17;4.60;;;15.70;99.90;;;;;;5031921;28;20202;-89
2021/10/03 02:46:12;;;;;;;19.33;3.80;;;15.70;99.90;;;;;;5031004;28;20223;-86
2021/10/03 02:48:47;;;;;;;10.07;2.70;;;15.60;99.90;;;;;;5032931;28;20229;-89
2021/10/03 02:51:14;;;;;;;16.30;2.67;;;15.50;99.90;;;;;;5032948;28;20190;-87
2021/10/03 02:53:41;;;;;;;16.77;3.10;;;15.40;99.90;;;;;;5031795;28;20554;-87
2021/10/03 02:56:08;;;;;;;15.10;3.07;;;15.40;99.90;;;;;;5032643;28;20672;-88
2021/10/03 02:58:36;;;;;;;11.23;3.17;;;15.40;99.90;;;;;;5031775;28;20190;-86
2021/10/03 03:01:03;;;;;;;12.43;3.22;;;15.30;99.90;;;;;;5041099;28;20617;-87
2021/10/03 03:03:30;;;;;;;21.50;3.13;;;15.30;99.90;;;;;;5048203;28;20225;-91
2021/10/03 03:05:59;;;;;;;20.33;3.87;;;15.30;99.90;;;;;;5037885;28;20858;-88
2021/10/03 03:08:26;;;;;;;18.63;4.53;;;15.30;99.90;;;;;;5032073;28;20280;-88
2021/10/03 03:10:52;;;;;;;11.57;2.80;;;15.20;99.90;;;;;;5031706;28;20214;-87
2021/10/03 03:13:19;;;;;;;21.47;3.80;;;15.20;99.90;;;;;;5031764;28;20206;-88
2021/10/03 03:15:46;;;;;;;20.33;4.10;;;15.20;99.90;;;;;;5032491;28;20206;-88
2021/10/03 03:18:13;;;;;;;20.53;3.83;;;15.30;99.90;;;;;;5032032;28;20199;-87
2021/10/03 03:20:40;;;;;;;13.43;3.07;;;15.20;99.90;;;;;;5048349;28;20202;-85
2021/10/03 03:23:08;;;;;;;15.40;3.70;;;15.30;99.90;;;;;;5044126;28;20205;-85
2021/10/03 03:25:36;;;;;;;18.67;4.47;;;15.30;99.90;;;;;;5031276;28;20218;-86
2021/10/03 03:28:04;;;;;;;14.83;2.83;;;15.30;99.90;;;;;;5029832;28;20238;-87
2021/10/03 03:30:30;;;;;;;10.77;2.83;;;15.20;99.90;;;;;;5030673;28;20206;-87
2021/10/03 03:32:57;;;;;;;16.53;3.20;;;15.10;99.90;;;;;;5037718;28;20202;-88
2021/10/03 03:35:25;;;;;;;13.97;3.83;;;15.10;99.90;;;;;;5050942;28;20194;-87
2021/10/03 03:37:51;;;;;;;11.53;3.70;;;15.10;99.90;;;;;;5051693;28;20212;-86
2021/10/03 03:40:20;;;;;;;14.27;3.80;;;15.10;99.90;;;;;;5034615;28;20257;-89
2021/10/03 03:42:47;;;;;;;11.37;2.80;;;15.10;99.90;;;;;;5031526;28;20784;-86
2021/10/03 03:45:14;;;;;;;13.33;3.57;;;15.10;99.90;;;;;;5031275;28;20198;-87
2021/10/03 03:47:41;;;;;;;11.97;2.70;;;15.10;99.90;;;;;;5031152;28;20238;-88
2021/10/03 03:50:13;;;;;;;11.10;2.53;;;15.20;99.90;;;;;;5031412;28;20203;-91
2021/10/03 03:52:40;;;;;;;10.83;2.60;;;15.20;99.90;;;;;;5031046;28;20210;-87
2021/10/03 03:55:08;;;;;;;15.23;3.07;;;15.10;99.90;;;;;;5031094;28;20229;-87
2021/10/03 03:57:37;;;;;;;14.00;3.23;;;15.10;99.90;;;;;;5030785;28;20209;-87
2021/10/03 04:00:06;;;;;;;12.57;3.10;;;15.10;99.90;;;;;;5042685;28;20210;-88
2021/10/03 04:02:33;;;;;;;11.90;2.90;;;15.10;99.90;;;;;;5051202;28;20240;-87
2021/10/03 04:05:00;;;;;;;11.60;3.07;;;15.00;99.90;;;;;;5052326;28;20202;-90
2021/10/03 04:07:27;;;;;;;11.40;2.07;;;14.90;99.90;;;;;;5041134;28;20709;-89
2021/10/03 04:09:53;;;;;;;10.37;1.90;;;14.70;99.90;;;;;;5031630;28;20217;-93
2021/10/03 04:12:20;;;;;;;7.73;1.77;;;14.70;99.90;;;;;;5032331;28;20195;-90
2021/10/03 04:14:49;;;;;;;8.07;1.73;;;14.60;99.90;;;;;;5048408;28;20202;-87
2021/10/03 04:17:16;;;;;;;8.23;1.83;;;14.50;99.90;;;;;;5053833;28;20198;-87
2021/10/03 04:19:42;;;;;;;10.00;2.37;;;14.50;99.90;;;;;;5051592;28;20205;-86
2021/10/03 04:22:09;;;;;;;9.77;1.87;;;14.40;99.90;;;;;;5038765;28;20211;-87
2021/10/03 04:24:36;;;;;;;13.67;2.17;;;14.40;99.90;;;;;;5031954;28;20205;-86
2021/10/03 04:27:03;;;;;;;8.27;2.03;;;14.40;99.90;;;;;;5032669;28;20206;-87
2021/10/03 04:29:30;;;;;;;5.07;1.63;;;14.30;99.90;;;;;;5031179;28;20218;-88
2021/10/03 04:31:58;;;;;;;5.90;2.00;;;14.30;99.90;;;;;;5032066;28;20216;-89
2021/10/03 04:34:25;;;;;;;8.83;2.90;;;14.30;99.90;;;;;;5053447;28;20213;-89
2021/10/03 04:36:52;;;;;;;13.17;2.73;;;14.30;99.90;;;;;;5052466;28;20602;-89
2021/10/03 04:39:19;;;;;;;10.00;2.60;;;14.30;99.90;;;;;;5053729;28;20210;-88
2021/10/03 04:41:46;;;;;;;11.83;3.00;;;14.30;99.90;;;;;;5052408;28;20194;-87
2021/10/03 04:44:12;;;;;;;11.33;2.30;;;14.30;99.90;;;;;;5043719;28;20225;-88
2021/10/03 04:46:39;;;;;;;8.40;1.97;;;14.30;99.90;;;;;;5034112;28;20222;-88
2021/10/03 04:49:08;;;;;;;8.83;2.03;;;14.30;99.90;;;;;;5034862;28;20233;-91
2021/10/03 04:51:35;;;;;;;7.20;1.90;;;14.30;99.90;;;;;;5034442;28;20191;-88
2021/10/03 04:54:02;;;;;;;10.70;1.83;;;14.30;99.90;;;;;;5034856;28;20203;-84
2021/10/03 04:56:29;;;;;;;6.30;1.60;;;14.30;99.90;;;;;;5034202;28;20253;-87
2021/10/03 04:58:56;;;;;;;10.97;1.93;;;14.30;99.90;;;;;;5034356;28;20257;-87
2021/10/03 05:01:23;;;;;;;7.40;1.60;;;14.20;99.90;;;;;;5034119;28;20207;-88
2021/10/03 05:03:50;;;;;;;12.13;1.70;;;14.20;99.90;;;;;;5033710;28;20206;-89
2021/10/03 05:06:18;;;;;;;7.40;1.63;;;14.30;99.90;;;;;;5033765;28;20610;-88
2021/10/03 05:08:45;;;;;;;8.17;1.73;;;14.20;99.90;;;;;;5033762;28;20233;-86
2021/10/03 05:11:12;;;;;;;4.50;1.70;;;14.20;99.90;;;;;;5036588;28;20221;-88
2021/10/03 05:13:39;;;;;;;7.47;1.47;;;14.20;99.90;;;;;;5053078;28;20205;-88
2021/10/03 05:16:06;;;;;;;8.17;1.50;;;14.10;99.90;;;;;;5049024;28;20888;-90
2021/10/03 05:18:36;;;;;;;4.87;1.60;;;14.10;99.90;;;;;;5033562;28;20256;-87
2021/10/03 05:21:03;;;;;;;4.03;1.40;;;14.00;99.90;;;;;;5033715;28;20556;-90
2021/10/03 05:23:32;;;;;;;4.73;1.20;;;14.00;99.90;;;;;;5033692;28;20195;-89
2021/10/03 05:25:59;;;;;;;5.47;1.50;;;14.00;99.90;;;;;;5033732;28;20210;-89
2021/10/03 05:28:26;;;;;;;3.83;1.77;;;14.00;99.90;;;;;;5034053;28;20309;-88
2021/10/03 05:30:53;;;;;;;2.57;1.40;;;14.00;99.90;;;;;;5034440;28;20766;-88
2021/10/03 05:33:20;;;;;;;7.17;1.63;;;14.00;99.90;;;;;;5047387;28;20217;-88
2021/10/03 05:35:47;;;;;;;8.27;1.80;;;14.00;99.90;;;;;;5054240;28;20198;-88
2021/10/03 05:38:14;;;;;;;7.67;1.83;;;14.00;99.90;;;;;;5054226;28;20206;-87
2021/10/03 05:40:42;;;;;;;8.00;1.47;;;14.00;99.90;;;;;;5052570;28;20213;-87
2021/10/03 05:43:09;;;;;;;10.63;2.00;;;14.00;99.90;;;;;;5033412;28;20203;-88
2021/10/03 05:45:36;;;;;;;7.33;2.20;;;14.00;99.90;;;;;;5039760;28;20212;-87
2021/10/03 05:48:03;;;;;;;11.40;2.30;;;14.00;99.90;;;;;;5053542;28;20229;-86
2021/10/03 05:50:30;;;;;;;8.13;1.93;;;14.00;99.90;;;;;;5040785;28;20206;-87
2021/10/03 05:52:56;;;;;;;6.63;2.90;;;14.00;99.90;;;;;;5032541;28;20517;-86
2021/10/03 05:55:23;;;;;;;6.67;2.07;;;14.00;99.90;;;;;;5033560;28;20239;-86
2021/10/03 05:57:52;;;;;;;7.33;1.87;;;13.90;99.90;;;;;;5031271;28;20191;-87
2021/10/03 06:00:19;;;;;;;8.03;2.40;;;13.90;99.90;;;;;;5033584;28;20210;-88
2021/10/03 06:02:46;;;;;;;6.50;1.70;;;13.90;99.90;;;;;;5032815;28;20214;-85
2021/10/03 06:05:12;;;;;;;5.43;1.60;;;13.90;99.90;;;;;;5033185;28;20210;-89
2021/10/03 06:07:39;;;;;;;6.10;1.53;;;13.90;99.90;;;;;;5032712;28;20199;-88
2021/10/03 06:10:09;;;;;;;4.57;1.53;;;13.90;99.90;;;;;;5032414;28;20198;-86
2021/10/03 06:12:36;;;;;;;4.50;1.20;;;13.80;99.90;;;;;;5043972;28;20209;-89
2021/10/03 06:15:05;;;;;;;3.23;1.10;;;13.80;99.90;;;;;;5052521;28;20807;-89
2021/10/03 06:17:32;;;;;;;6.17;1.40;;;13.80;99.90;;;;;;5052716;28;20190;-91
2021/10/03 06:19:59;;;;;;;3.53;1.30;;;13.80;99.90;;;;;;5041937;28;20218;-89
2021/10/03 06:22:26;;;;;;;4.10;1.23;;;13.80;99.90;;;;;;5038192;28;20224;-88
2021/10/03 06:24:53;;;;;;;2.70;1.33;;;13.80;99.90;;;;;;5034909;28;20913;-88
2021/10/03 06:27:20;;;;;;;8.23;1.67;;;13.80;99.90;;;;;;5032739;28;20191;-88
2021/10/03 06:29:47;;;;;;;5.60;1.30;;;13.80;99.90;;;;;;5032127;28;20941;-86
2021/10/03 06:32:15;;;;;;;5.33;1.40;;;13.80;99.90;;;;;;5031927;28;20206;-87
2021/10/03 06:34:42;;;;;;;4.33;1.30;;;13.80;99.90;;;;;;5031778;28;20206;-87
2021/10/03 06:37:09;;;;;;;4.47;1.67;;;13.80;99.90;;;;;;5037291;28;20364;-87
2021/10/03 06:39:35;;;;;;;4.27;1.37;;;13.80;99.90;;;;;;5052587;28;20213;-88
2021/10/03 06:42:02;;;;;;;4.43;1.10;;;13.80;99.90;;;;;;5051970;28;20193;-87
2021/10/03 06:44:29;;;;;;;3.43;1.43;;;13.80;99.90;;;;;;5058992;22;20238;-86
2021/10/03 06:46:56;;;;;;;5.03;1.20;;;13.80;99.90;;;;;;5027402;28;20238;-88
2021/10/03 06:49:52;;;;;;;5.53;1.37;;;13.80;99.90;;;;;;4984826;28;20234;-86
2021/10/03 06:52:36;;;;;;;6.07;1.40;;;13.80;99.90;;;;;;4991106;28;20547;-86
2021/10/03 06:55:04;;;;;;;3.73;1.50;;;13.70;99.90;;;;;;5029829;28;20195;-86
2021/10/03 06:57:31;;;;;;;8.47;1.30;;;13.70;99.90;;;;;;5031555;28;20210;-86
2021/10/03 06:59:57;;;;;;;5.03;1.67;;;13.70;99.90;;;;;;5012307;28;20226;-87
2021/10/03 07:02:27;;;;;;;2.27;1.17;;;13.70;99.90;;;;;;5016259;28;20195;-86
2021/10/03 07:04:55;;;;;;;7.90;1.67;;;13.70;99.90;;;;;;5031200;28;20607;-87
2021/10/03 07:07:23;;;;;;;5.77;1.50;;;13.70;99.90;;;;;;5030939;28;20206;-88
2021/10/03 07:09:50;;;;;;;6.80;1.40;;;13.70;99.90;;;;;;5014703;28;20227;-87
2021/10/03 07:12:18;;;;;;;6.20;1.70;;;13.70;99.90;;;;;;5012111;28;20188;-86
2021/10/03 22:11:48;;;;;;;8.70;2.50;;;12.90;99.90;;;;;;5022915;28;20540;-90
2021/10/03 22:14:15;;;;;;;9.83;1.90;;;12.90;99.90;;;;;;5014550;28;20207;-91
2021/10/03 22:16:42;;;;;;;6.13;1.70;;;12.90;99.90;;;;;;5014381;28;20203;-92
2021/10/03 22:19:09;;;;;;;8.97;1.60;;;12.90;99.90;;;;;;5014562;28;20207;-93
2021/10/03 22:21:36;;;;;;;7.27;1.70;;;12.90;99.90;;;;;;5010971;28;20195;-92
2021/10/03 22:24:04;;;;;;;8.63;1.90;;;12.80;99.90;;;;;;5014436;28;20294;-90
2021/10/03 22:26:31;;;;;;;9.10;2.23;;;12.90;99.90;;;;;;5014986;28;20326;-90
2021/10/03 22:28:59;;;;;;;7.20;2.00;;;12.90;99.90;;;;;;5012872;28;20243;-89
2021/10/03 22:31:27;;;;;;;6.67;2.10;;;13.00;99.90;;;;;;5031345;28;20647;-92
2021/10/03 22:33:54;;;;;;;6.83;1.90;;;13.00;99.90;;;;;;5032877;28;20602;-90
2021/10/03 22:36:21;;;;;;;5.77;1.60;;;13.00;99.90;;;;;;5022269;28;20227;-92
2021/10/03 22:38:48;;;;;;;9.57;2.03;;;13.00;99.90;;;;;;5031344;28;20195;-93
2021/10/03 22:41:15;;;;;;;11.70;2.70;;;13.00;99.90;;;;;;5032602;28;20207;-93
2021/10/03 22:43:43;;;;;;;7.43;2.20;;;13.00;99.90;;;;;;5029717;28;20204;-95
2021/10/03 22:46:12;;;;;;;13.10;2.87;;;13.00;99.90;;;;;;5012746;28;20217;-87
2021/10/03 22:48:39;;;;;;;8.27;1.97;;;13.10;99.90;;;;;;5012717;28;20209;-91
2021/10/03 22:51:05;;;;;;;8.77;1.93;;;13.00;99.90;;;;;;5012702;28;20207;-92
2021/10/03 22:53:33;;;;;;;9.50;1.87;;;13.00;99.90;;;;;;5012254;28;20219;-87
2021/10/03 22:56:00;;;;;;;7.83;1.83;;;13.00;99.90;;;;;;5012139;28;20240;-91
2021/10/03 22:58:27;;;;;;;6.73;1.90;;;13.00;99.90;;;;;;5031528;28;20206;-93
2021/10/03 23:00:54;;;;;;;8.13;1.53;;;12.90;99.90;;;;;;5020185;28;20199;-94
2021/10/03 23:03:22;;;;;;;6.53;1.57;;;13.00;99.90;;;;;;5012238;28;20210;-90
2021/10/03 23:05:49;;;;;;;6.03;1.70;;;13.00;99.90;;;;;;5012355;28;20206;-91
2021/10/03 23:08:16;;;;;;;5.60;1.47;;;12.90;99.90;;;;;;5012158;28;20206;-93
2021/10/03 23:10:43;;;;;;;6.47;1.40;;;12.90;99.90;;;;;;5022292;28;20254;-92
2021/10/03 23:13:10;;;;;;;6.10;1.70;;;12.90;99.90;;;;;;5031401;28;20198;-93
2021/10/03 23:15:38;;;;;;;5.93;1.80;;;12.90;99.90;;;;;;5026033;28;20634;-90
2021/10/03 23:18:05;;;;;;;5.43;1.23;;;12.90;99.90;;;;;;5012292;28;20295;-91
2021/10/03 23:20:33;;;;;;;6.33;1.43;;;12.90;99.90;;;;;;5011944;28;20215;-94
2021/10/03 23:23:00;;;;;;;9.40;1.57;;;12.90;99.90;;;;;;5011475;28;20207;-91
2021/10/03 23:25:27;;;;;;;8.50;2.30;;;12.90;99.90;;;;;;5009289;28;20254;-90
2021/10/03 23:27:54;;;;;;;3.37;1.30;;;12.90;99.90;;;;;;5012332;28;20230;-92
2021/10/03 23:30:21;;;;;;;8.63;2.10;;;12.80;99.90;;;;;;5012342;28;20235;-92
2021/10/03 23:32:48;;;;;;;10.37;2.43;;;12.80;99.90;;;;;;5012047;28;20598;-90
2021/10/03 23:35:15;;;;;;;8.80;1.70;;;12.90;99.90;;;;;;5012531;28;20278;-91
2021/10/03 23:37:44;;;;;;;10.10;2.03;;;12.90;99.90;;;;;;5012075;28;20216;-93
2021/10/03 23:40:12;;;;;;;9.23;1.70;;;12.90;99.90;;;;;;5011976;28;20214;-90
2021/10/03 23:42:39;;;;;;;9.47;1.93;;;12.80;99.90;;;;;;5012942;28;20196;-93
2021/10/03 23:45:08;;;;;;;5.67;1.60;;;12.90;99.90;;;;;;5013006;28;20234;-93
2021/10/03 23:47:35;;;;;;;10.73;2.53;;;12.80;99.90;;;;;;5013657;28;20207;-93
2021/10/03 23:50:04;;;;;;;8.77;1.80;;;12.80;99.90;;;;;;5012962;28;20230;-93
2021/10/03 23:52:30;;;;;;;13.23;2.93;;;12.80;99.90;;;;;;5012973;28;20507;-92
2021/10/03 23:54:59;;;;;;;9.53;2.27;;;12.80;99.90;;;;;;5012154;28;20214;-93
2021/10/03 23:57:27;;;;;;;14.07;2.90;;;12.90;99.90;;;;;;5010682;28;20222;-89
2021/10/03 23:59:54;;;;;;;8.90;2.20;;;12.90;99.90;;;;;;5012626;28;20628;-91
